< Typhoon 200112 2001 Season Typhoon 200114 >
Typhoon 200113 (SEPAT)
General InformationTrack Information on Google MapsDetailed Wind InformationList of All Images || Disaster Info.ResourceGoogle EarthGE AnimationAtom FeedGeoJSON
Detalied Best Track (Time Zone = UTC)
Year Month Day Hour Lat. Long. Pressure (hPa) Wind (kt) Class Image Chart
2001 8 26 18 20.5 163.3 1000 0 2 Image Chart
2001 8 27 00 21.6 162.7 1000 0 2 Image Chart
2001 8 27 06 22.7 162.0 1000 0 2 Image Chart
2001 8 27 12 23.4 161.5 1000 0 2 Image Chart
2001 8 27 18 24.0 161.7 996 35 3 Image Chart
2001 8 28 00 24.5 161.0 994 40 3 Image Chart
2001 8 28 06 25.1 161.2 990 45 3 Image Chart
2001 8 28 12 26.3 161.3 990 45 3 Image Chart
2001 8 28 18 27.8 160.9 992 45 3 Image Chart
2001 8 29 00 29.1 160.7 994 40 3 Image Chart
2001 8 29 06 30.4 160.7 994 40 3 Image Chart
2001 8 29 12 32.0 160.4 994 40 3 Image Chart
2001 8 29 18 34.1 160.0 992 40 3 Image Chart
2001 8 30 00 36.2 159.5 992 40 3 Image Chart
2001 8 30 06 38.5 160.2 992 40 3 Image Chart
2001 8 30 12 40.5 161.6 992 40 3 Image Chart
2001 8 30 18 41.6 163.5 992 0 6 Image Chart
2001 8 31 00 42.3 165.6 996 0 6 Image Chart
2001 8 31 06 42.3 166.8 996 0 6 Image Chart
2001 8 31 12 42.6 168.0 1000 0 6 Image Chart
Japan Meteorological Agency Best Track Data | Correction Date : 2002-01-24
< Typhoon 200112 2001 Season Typhoon 200114 >

Help